TimeMST,TemperatureF,Dew PointF,Humidity,Sea Level PressureIn,VisibilityMPH,Wind Direction,Wind SpeedMPH,Gust SpeedMPH,PrecipitationIn,Events,Conditions,WindDirDegrees,DateUTC
12:15 AM,30.2,-2.2,25,-9999,10.0,North,3.5,-,N/A,,Clear,360,2013-01-07 07:15:00
12:35 AM,30.2,-4.0,23,-9999,10.0,Calm,Calm,-,N/A,,Clear,0,2013-01-07 07:35:00
1:15 AM,28.4,-2.2,27,-9999,10.0,North,3.5,-,N/A,,Clear,360,2013-01-07 08:15:00
1:35 AM,30.2,3.2,32,-9999,10.0,WNW,5.8,-,N/A,,Clear,290,2013-01-07 08:35:00
1:55 AM,30.2,5.0,34,-9999,10.0,West,8.1,-,N/A,,Clear,280,2013-01-07 08:55:00
2:15 AM,30.2,3.2,32,-9999,10.0,West,3.5,-,N/A,,Clear,260,2013-01-07 09:15:00
2:35 AM,28.4,1.4,31,-9999,10.0,WSW,3.5,-,N/A,,Clear,250,2013-01-07 09:35:00
2:55 AM,30.2,5.0,34,-9999,10.0,Calm,Calm,-,N/A,,Clear,0,2013-01-07 09:55:00
3:15 AM,30.2,6.8,37,-9999,10.0,West,9.2,-,N/A,,Clear,280,2013-01-07 10:15:00
3:55 AM,28.4,6.8,40,-9999,10.0,West,4.6,-,N/A,,Clear,260,2013-01-07 10:55:00
4:15 AM,28.4,6.8,40,-9999,10.0,West,8.1,-,N/A,,Clear,260,2013-01-07 11:15:00
4:35 AM,28.4,5.0,37,-9999,10.0,West,5.8,-,N/A,,Clear,260,2013-01-07 11:35:00
4:55 AM,28.4,5.0,37,-9999,10.0,WNW,3.5,-,N/A,,Clear,290,2013-01-07 11:55:00
5:15 AM,28.4,6.8,40,-9999,10.0,Calm,Calm,-,N/A,,Clear,0,2013-01-07 12:15:00
5:35 AM,26.6,8.6,47,-9999,10.0,Calm,Calm,-,N/A,,Clear,0,2013-01-07 12:35:00
5:55 AM,28.4,8.6,43,-9999,10.0,WSW,9.2,-,N/A,,Clear,250,2013-01-07 12:55:00
6:15 AM,26.6,8.6,47,-9999,10.0,WSW,10.4,-,N/A,,Clear,250,2013-01-07 13:15:00
6:35 AM,24.8,10.4,54,-9999,10.0,WSW,11.5,-,N/A,,Clear,250,2013-01-07 13:35:00
6:55 AM,24.8,10.4,54,-9999,10.0,WSW,9.2,-,N/A,,Clear,240,2013-01-07 13:55:00
7:15 AM,21.2,8.6,58,-9999,10.0,WSW,9.2,-,N/A,,Clear,240,2013-01-07 14:15:00
7:35 AM,23.0,8.6,54,-9999,10.0,SW,10.4,-,N/A,,Clear,230,2013-01-07 14:35:00
7:55 AM,21.2,8.6,58,-9999,10.0,SW,8.1,-,N/A,,Clear,230,2013-01-07 14:55:00
8:15 AM,24.8,10.4,54,-9999,10.0,WSW,8.1,-,N/A,,Clear,240,2013-01-07 15:15:00
8:35 AM,24.8,8.6,50,-9999,10.0,West,8.1,-,N/A,,Clear,260,2013-01-07 15:35:00
8:55 AM,28.4,5.0,37,-9999,10.0,WSW,8.1,-,N/A,,Clear,250,2013-01-07 15:55:00
9:15 AM,26.6,8.6,47,-9999,10.0,SSW,3.5,-,N/A,,Clear,210,2013-01-07 16:15:00
9:35 AM,23.0,10.4,59,-9999,10.0,SSW,4.6,-,N/A,,Clear,210,2013-01-07 16:35:00
9:55 AM,28.4,5.0,37,-9999,10.0,Calm,Calm,-,N/A,,Clear,0,2013-01-07 16:55:00
10:35 AM,32.0,1.4,27,-9999,10.0,Calm,Calm,-,N/A,,Clear,0,2013-01-07 17:35:00
10:55 AM,32.0,3.2,30,-9999,10.0,West,8.1,-,N/A,,Clear,270,2013-01-07 17:55:00
11:15 AM,30.2,8.6,40,-9999,10.0,WSW,10.4,-,N/A,,Clear,250,2013-01-07 18:15:00
11:55 AM,26.6,12.2,55,-9999,10.0,WSW,24.2,31.1,N/A,,Clear,250,2013-01-07 18:55:00
12:15 PM,24.8,12.2,59,-9999,10.0,WSW,15.0,25.3,N/A,,Clear,240,2013-01-07 19:15:00
12:55 PM,23.0,12.2,63,-9999,10.0,WSW,13.8,-,N/A,,Clear,250,2013-01-07 19:55:00
1:15 PM,21.2,10.4,63,-9999,10.0,SW,8.1,-,N/A,,Clear,230,2013-01-07 20:15:00
1:35 PM,23.0,12.2,63,-9999,10.0,SW,12.7,-,N/A,,Clear,220,2013-01-07 20:35:00
1:55 PM,24.8,12.2,59,-9999,10.0,SSW,10.4,17.3,N/A,,Clear,210,2013-01-07 20:55:00
2:15 PM,23.0,12.2,63,-9999,10.0,SW,9.2,-,N/A,,Clear,220,2013-01-07 21:15:00
2:35 PM,24.8,12.2,59,-9999,10.0,WSW,8.1,-,N/A,,Clear,240,2013-01-07 21:35:00
2:55 PM,26.6,14.0,59,-9999,10.0,WSW,13.8,20.7,N/A,,Clear,250,2013-01-07 21:55:00
3:15 PM,24.8,12.2,59,-9999,10.0,WSW,17.3,23.0,N/A,,Clear,250,2013-01-07 22:15:00
3:55 PM,15.8,10.4,79,-9999,10.0,SSW,9.2,-,N/A,,Clear,210,2013-01-07 22:55:00
4:15 PM,12.2,8.6,85,-9999,10.0,SW,10.4,-,N/A,,Clear,230,2013-01-07 23:15:00
4:35 PM,12.2,8.6,85,-9999,10.0,SW,11.5,-,N/A,,Clear,230,2013-01-07 23:35:00
4:55 PM,12.2,8.6,85,-9999,10.0,WSW,9.2,-,N/A,,Clear,240,2013-01-07 23:55:00
5:15 PM,12.2,8.6,85,-9999,10.0,SSW,12.7,-,N/A,,Clear,210,2013-01-08 00:15:00
5:35 PM,15.8,12.2,86,-9999,10.0,WSW,17.3,28.8,N/A,,Clear,240,2013-01-08 00:35:00
5:55 PM,21.2,12.2,68,-9999,10.0,SSW,9.2,20.7,N/A,,Clear,200,2013-01-08 00:55:00
6:15 PM,21.2,12.2,68,-9999,10.0,SW,11.5,18.4,N/A,,Scattered Clouds,220,2013-01-08 01:15:00
6:35 PM,19.4,12.2,74,-9999,10.0,SW,13.8,19.6,N/A,,Overcast,220,2013-01-08 01:35:00
6:55 PM,23.0,14.0,68,-9999,10.0,South,4.6,-,N/A,,Overcast,190,2013-01-08 01:55:00
7:15 PM,23.0,15.8,74,-9999,10.0,SW,8.1,-,N/A,,Overcast,230,2013-01-08 02:15:00
7:35 PM,21.2,14.0,74,-9999,10.0,SW,9.2,16.1,N/A,,Mostly Cloudy,220,2013-01-08 02:35:00
7:55 PM,26.6,19.4,74,-9999,10.0,West,9.2,-,N/A,,Scattered Clouds,280,2013-01-08 02:55:00
8:15 PM,26.6,19.4,74,-9999,10.0,West,17.3,25.3,N/A,,Clear,270,2013-01-08 03:15:00
8:35 PM,26.6,19.4,74,-9999,10.0,West,17.3,26.5,N/A,,Clear,260,2013-01-08 03:35:00
8:55 PM,23.0,17.6,80,-9999,10.0,WSW,20.7,24.2,N/A,,Clear,250,2013-01-08 03:55:00
9:15 PM,26.6,19.4,74,-9999,10.0,West,13.8,25.3,N/A,,Clear,260,2013-01-08 04:15:00
9:35 PM,23.0,17.6,80,-9999,10.0,WSW,16.1,19.6,N/A,,Clear,250,2013-01-08 04:35:00
9:55 PM,23.0,17.6,80,-9999,10.0,WSW,13.8,17.3,N/A,,Clear,250,2013-01-08 04:55:00
10:15 PM,23.0,17.6,80,-9999,10.0,WSW,11.5,-,N/A,,Clear,240,2013-01-08 05:15:00
10:35 PM,19.4,15.8,86,-9999,10.0,WSW,11.5,-,N/A,,Clear,250,2013-01-08 05:35:00
10:55 PM,21.2,17.6,86,-9999,10.0,WSW,11.5,-,N/A,,Clear,250,2013-01-08 05:55:00
11:15 PM,21.2,15.8,80,-9999,10.0,WSW,12.7,-,N/A,,Clear,250,2013-01-08 06:15:00
11:35 PM,24.8,17.6,74,-9999,10.0,WSW,16.1,-,N/A,,Clear,250,2013-01-08 06:35:00
11:55 PM,26.6,17.6,69,-9999,10.0,West,16.1,21.9,N/A,,Clear,260,2013-01-08 06:55:00